메인 페이지
METAR-TAF:

METAR-TAF

공항 :

테구시갈파, 온두라스

위도: 14-03N, 경도: 087-13W, 고도: 994m

현재 날씨관측

예보는 59분 전, 18:00시(UTC)에 발표되었습니다.
북북동12kt
온도 20°C
습도 64%
기압 1022 hPa
시정 10km 이상
고도 2800ft 상공 구름 보통
고도 7000ft 상공 구름 많음

METAR: MHTG 161800Z 03012KT 9999 SCT028 BKN070 20/13 Q1022 A3018 NOSIG

시각: 12:59 (18:59 UTC)

예보

예보는 2 시간 34분 전, 16:25시(UTC)에 발표되었습니다.
예보 대상 시간: 16일 18시부터 17일 18시까지 (UTC)
12kt
시정 10km 이상
고도 2400ft 상공 구름 보통
일시적
16일 20시부터 17일 02시까지 (UTC)
시정: 8000m
고도 2600ft 상공 구름 많음
시계 내 소나기
전환 중
17일 02시부터 17일 04시까지 (UTC)
시정: 5000m
고도 2400ft 상공 구름 보통
고도 8000ft 상공 구름 많음
약한이슬비
일시적
17일 10시부터 17일 16시까지 (UTC)
시정: 3000m
고도 8000ft 상공 구름 많음

TAF: MHTG 161625Z 1618/1718 36012KT 9999 SCT024 TX22/1619Z TN14/1612Z TEMPO 1620/1702 8000 VCSH BKN026 BECMG 1702/1704 5000 -DZ SCT024 BKN080 TEMPO 1710/1716 3000 DZBKN024 BKN080

4,000개 이상의 공항 관측 자료 및 예보 (METAR 및 TAF 보고).

지도상에서 검색 가능한 기상관측소가 노란 점과 빨간 점으로 표시되어 있습니다.

기상관측소 명을 보려면 표시 위로 마우스를 이동하세요.

날씨 관측과 예보를 보려면 클릭하세요.

지도 변경 : 확대하려면 엑스 표시가 있는 녹색 버튼, 축소하려면 빼기 표시가 있는 녹색 버튼, 다음 페이지의 지도를 보려면 녹색 화살표를 클릭하세요.


METAR-TAF: